createdAt,value
2023-04-29T00:26:53.057Z,2.55
2023-04-29T00:56:56.115Z,5.45
2023-04-29T01:27:08.935Z,5.95
2023-04-29T01:57:11.910Z,8.90
2023-04-29T02:27:14.863Z,9.80
2023-04-29T02:57:17.833Z,10.25
2023-04-29T03:27:20.728Z,10.80
2023-04-29T03:57:23.735Z,7.68
2023-04-29T04:27:26.631Z,6.43
2023-04-29T04:57:29.569Z,4.40
2023-04-29T05:27:32.583Z,6.13
2023-04-29T05:57:35.504Z,8.48
2023-04-29T06:27:38.411Z,9.45
2023-04-29T06:57:41.306Z,7.95
2023-04-29T07:27:44.311Z,5.38
2023-04-29T07:57:47.284Z,4.57
2023-04-29T08:27:50.239Z,3.33
2023-04-29T08:57:54.948Z,4.05
2023-04-29T09:27:58.065Z,4.05
2023-04-29T09:58:00.979Z,3.42
2023-04-29T10:28:04.468Z,3.55
2023-04-29T10:58:37.344Z,4.18
2023-04-29T11:28:42.083Z,3.78
2023-04-29T11:58:45.092Z,6.38
2023-04-29T12:28:48.676Z,8.48
2023-04-29T12:58:51.727Z,9.13
2023-04-29T13:28:54.687Z,11.40
2023-04-29T14:29:03.515Z,12.38
2023-04-29T14:59:06.411Z,10.52
2023-04-29T15:29:11.649Z,9.50
2023-04-29T15:59:14.568Z,8.43
2023-04-29T16:29:17.522Z,8.65
2023-04-29T16:59:20.472Z,9.52
2023-04-29T17:29:23.485Z,9.10
2023-04-29T17:59:26.418Z,9.60
2023-04-29T18:29:29.412Z,16.80
2023-04-29T18:59:32.310Z,11.43
2023-04-29T19:29:35.346Z,13.00
2023-04-29T19:59:38.249Z,13.05
2023-04-29T20:29:41.220Z,14.40
2023-04-29T20:59:44.214Z,13.45
2023-04-29T21:29:47.179Z,14.23
2023-04-29T21:59:50.254Z,16.02
2023-04-29T22:29:54.404Z,18.02
2023-04-29T22:59:57.979Z,19.67
2023-04-29T23:30:00.930Z,22.40
